sensor_id;sensor_type;location;lat;lon;timestamp;pressure;altitude;pressure_sealevel;temperature;humidity
73016;BME280;61893;50.074;14.440;2023-12-28T00:01:45;98521.66;;;3.37;91.95
73016;BME280;61893;50.074;14.440;2023-12-28T00:04:11;98526.63;;;3.29;91.80
73016;BME280;61893;50.074;14.440;2023-12-28T00:06:39;98517.78;;;3.17;92.75
73016;BME280;61893;50.074;14.440;2023-12-28T00:09:07;98512.53;;;3.17;92.23
73016;BME280;61893;50.074;14.440;2023-12-28T00:11:32;98515.81;;;3.21;92.72
73016;BME280;61893;50.074;14.440;2023-12-28T00:13:58;98516.75;;;3.20;92.64
73016;BME280;61893;50.074;14.440;2023-12-28T00:16:24;98519.72;;;3.15;92.68
73016;BME280;61893;50.074;14.440;2023-12-28T00:18:50;98517.69;;;3.06;93.32
73016;BME280;61893;50.074;14.440;2023-12-28T00:21:16;98520.75;;;3.00;93.45
73016;BME280;61893;50.074;14.440;2023-12-28T00:23:42;98511.50;;;2.94;93.65
73016;BME280;61893;50.074;14.440;2023-12-28T00:26:07;98518.97;;;2.87;94.48
73016;BME280;61893;50.074;14.440;2023-12-28T00:28:33;98503.84;;;2.78;94.67
73016;BME280;61893;50.074;14.440;2023-12-28T00:30:59;98506.13;;;2.83;94.85
73016;BME280;61893;50.074;14.440;2023-12-28T00:33:25;98505.72;;;2.76;95.75
73016;BME280;61893;50.074;14.440;2023-12-28T00:35:50;98515.16;;;2.66;95.21
73016;BME280;61893;50.074;14.440;2023-12-28T00:38:16;98508.22;;;2.65;95.62
73016;BME280;61893;50.074;14.440;2023-12-28T00:40:42;98513.38;;;2.66;96.24
73016;BME280;61893;50.074;14.440;2023-12-28T00:43:08;98514.09;;;2.68;96.70
73016;BME280;61893;50.074;14.440;2023-12-28T00:45:33;98502.75;;;2.68;96.30
73016;BME280;61893;50.074;14.440;2023-12-28T00:47:59;98497.22;;;2.73;96.21
73016;BME280;61893;50.074;14.440;2023-12-28T00:50:25;98500.66;;;2.86;95.24
73016;BME280;61893;50.074;14.440;2023-12-28T00:52:53;98503.19;;;2.87;94.57
73016;BME280;61893;50.074;14.440;2023-12-28T00:55:18;98510.56;;;2.95;94.57
73016;BME280;61893;50.074;14.440;2023-12-28T00:57:44;98514.22;;;3.05;93.77
73016;BME280;61893;50.074;14.440;2023-12-28T01:00:10;98505.19;;;3.22;92.93
73016;BME280;61893;50.074;14.440;2023-12-28T01:02:36;98509.91;;;3.17;92.64
73016;BME280;61893;50.074;14.440;2023-12-28T01:05:02;98500.97;;;3.20;92.61
73016;BME280;61893;50.074;14.440;2023-12-28T01:07:28;98505.50;;;3.17;92.76
73016;BME280;61893;50.074;14.440;2023-12-28T01:09:54;98491.53;;;3.04;93.86
73016;BME280;61893;50.074;14.440;2023-12-28T01:12:20;98489.00;;;3.03;94.06
73016;BME280;61893;50.074;14.440;2023-12-28T01:14:45;98488.06;;;3.04;93.78
73016;BME280;61893;50.074;14.440;2023-12-28T01:17:11;98489.13;;;3.01;93.28
73016;BME280;61893;50.074;14.440;2023-12-28T01:19:37;98498.34;;;2.94;93.64
73016;BME280;61893;50.074;14.440;2023-12-28T01:22:03;98496.38;;;2.98;93.57
73016;BME280;61893;50.074;14.440;2023-12-28T01:24:28;98501.72;;;2.96;93.06
73016;BME280;61893;50.074;14.440;2023-12-28T01:26:54;98507.28;;;2.91;93.49
73016;BME280;61893;50.074;14.440;2023-12-28T01:29:20;98517.41;;;2.98;92.56
73016;BME280;61893;50.074;14.440;2023-12-28T01:31:45;98520.03;;;2.98;92.65
73016;BME280;61893;50.074;14.440;2023-12-28T01:34:17;98516.66;;;2.96;92.50
73016;BME280;61893;50.074;14.440;2023-12-28T01:36:43;98527.38;;;2.92;93.04
73016;BME280;61893;50.074;14.440;2023-12-28T01:39:09;98531.69;;;2.93;92.72
73016;BME280;61893;50.074;14.440;2023-12-28T01:41:36;98531.28;;;2.87;92.78
73016;BME280;61893;50.074;14.440;2023-12-28T01:44:02;98530.31;;;2.75;93.61
73016;BME280;61893;50.074;14.440;2023-12-28T01:46:28;98520.09;;;2.70;93.93
73016;BME280;61893;50.074;14.440;2023-12-28T01:48:55;98518.44;;;2.69;93.86
73016;BME280;61893;50.074;14.440;2023-12-28T01:51:23;98503.31;;;2.73;94.08
73016;BME280;61893;50.074;14.440;2023-12-28T01:53:49;98500.75;;;2.71;94.03
73016;BME280;61893;50.074;14.440;2023-12-28T01:56:15;98509.06;;;2.65;94.58
73016;BME280;61893;50.074;14.440;2023-12-28T01:58:43;98500.75;;;2.59;94.47
73016;BME280;61893;50.074;14.440;2023-12-28T02:01:24;98499.81;;;2.60;94.74
73016;BME280;61893;50.074;14.440;2023-12-28T02:03:52;98496.13;;;2.62;94.20
73016;BME280;61893;50.074;14.440;2023-12-28T02:06:23;98502.75;;;2.68;93.88
73016;BME280;61893;50.074;14.440;2023-12-28T02:09:05;98493.38;;;2.51;94.65
73016;BME280;61893;50.074;14.440;2023-12-28T02:11:31;98489.63;;;2.55;94.54
73016;BME280;61893;50.074;14.440;2023-12-28T02:13:57;98486.88;;;2.57;94.25
73016;BME280;61893;50.074;14.440;2023-12-28T02:16:29;98473.53;;;2.47;95.36
73016;BME280;61893;50.074;14.440;2023-12-28T02:19:00;98486.13;;;2.55;93.86
73016;BME280;61893;50.074;14.440;2023-12-28T02:21:30;98480.16;;;2.53;94.31
73016;BME280;61893;50.074;14.440;2023-12-28T02:23:57;98457.16;;;2.56;94.57
73016;BME280;61893;50.074;14.440;2023-12-28T02:26:22;98478.06;;;2.58;94.43
73016;BME280;61893;50.074;14.440;2023-12-28T02:28:49;98466.91;;;2.54;94.61
73016;BME280;61893;50.074;14.440;2023-12-28T02:31:21;98462.50;;;2.55;94.71
73016;BME280;61893;50.074;14.440;2023-12-28T02:33:54;98470.16;;;2.45;94.53
73016;BME280;61893;50.074;14.440;2023-12-28T02:36:23;98485.31;;;2.54;94.83
73016;BME280;61893;50.074;14.440;2023-12-28T02:38:57;98474.78;;;2.41;95.15
73016;BME280;61893;50.074;14.440;2023-12-28T02:41:25;98486.63;;;2.34;95.38
73016;BME280;61893;50.074;14.440;2023-12-28T02:43:51;98474.88;;;2.27;95.99
73016;BME280;61893;50.074;14.440;2023-12-28T02:46:17;98463.13;;;2.33;95.49
73016;BME280;61893;50.074;14.440;2023-12-28T02:48:43;98447.66;;;2.28;95.68
73016;BME280;61893;50.074;14.440;2023-12-28T02:51:09;98437.16;;;2.28;95.56
73016;BME280;61893;50.074;14.440;2023-12-28T02:53:35;98439.38;;;2.34;95.37
73016;BME280;61893;50.074;14.440;2023-12-28T02:56:00;98442.31;;;2.30;95.54
73016;BME280;61893;50.074;14.440;2023-12-28T02:58:26;98409.66;;;2.21;95.54
73016;BME280;61893;50.074;14.440;2023-12-28T03:00:51;98429.41;;;2.27;95.43
73016;BME280;61893;50.074;14.440;2023-12-28T03:03:17;98419.50;;;2.17;95.69
73016;BME280;61893;50.074;14.440;2023-12-28T03:05:43;98409.41;;;2.11;96.43
73016;BME280;61893;50.074;14.440;2023-12-28T03:08:09;98404.97;;;1.99;96.56
73016;BME280;61893;50.074;14.440;2023-12-28T03:10:34;98404.66;;;1.91;96.46
73016;BME280;61893;50.074;14.440;2023-12-28T03:13:00;98402.97;;;1.90;96.70
73016;BME280;61893;50.074;14.440;2023-12-28T03:15:26;98415.88;;;1.93;97.43
73016;BME280;61893;50.074;14.440;2023-12-28T03:17:52;98405.88;;;1.85;97.18
73016;BME280;61893;50.074;14.440;2023-12-28T03:20:18;98402.97;;;1.90;96.90
73016;BME280;61893;50.074;14.440;2023-12-28T03:22:44;98421.34;;;1.90;96.75
73016;BME280;61893;50.074;14.440;2023-12-28T03:25:09;98425.41;;;1.81;97.52
73016;BME280;61893;50.074;14.440;2023-12-28T03:27:35;98438.81;;;1.76;97.74
73016;BME280;61893;50.074;14.440;2023-12-28T03:30:01;98455.03;;;1.69;98.21
73016;BME280;61893;50.074;14.440;2023-12-28T03:32:27;98447.69;;;1.61;97.93
73016;BME280;61893;50.074;14.440;2023-12-28T03:34:52;98448.78;;;1.57;98.55
73016;BME280;61893;50.074;14.440;2023-12-28T03:37:18;98439.91;;;1.60;98.72
73016;BME280;61893;50.074;14.440;2023-12-28T03:39:44;98440.09;;;1.56;98.46
73016;BME280;61893;50.074;14.440;2023-12-28T03:42:11;98439.66;;;1.50;98.68
73016;BME280;61893;50.074;14.440;2023-12-28T03:44:36;98435.72;;;1.43;98.54
73016;BME280;61893;50.074;14.440;2023-12-28T03:47:02;98437.13;;;1.48;98.87
73016;BME280;61893;50.074;14.440;2023-12-28T03:49:28;98437.06;;;1.35;98.46
73016;BME280;61893;50.074;14.440;2023-12-28T03:51:54;98440.97;;;1.43;98.58
73016;BME280;61893;50.074;14.440;2023-12-28T03:54:19;98436.22;;;1.35;98.79
73016;BME280;61893;50.074;14.440;2023-12-28T03:56:46;98423.13;;;1.35;98.85
73016;BME280;61893;50.074;14.440;2023-12-28T03:59:12;98444.63;;;1.40;98.23
73016;BME280;61893;50.074;14.440;2023-12-28T04:01:38;98439.47;;;1.53;98.21
73016;BME280;61893;50.074;14.440;2023-12-28T04:04:04;98427.13;;;1.41;98.40
73016;BME280;61893;50.074;14.440;2023-12-28T04:06:30;98424.53;;;1.41;98.51
73016;BME280;61893;50.074;14.440;2023-12-28T04:08:55;98427.41;;;1.36;98.96
73016;BME280;61893;50.074;14.440;2023-12-28T04:11:21;98427.50;;;1.49;98.14
73016;BME280;61893;50.074;14.440;2023-12-28T04:13:47;98421.84;;;1.55;97.60
73016;BME280;61893;50.074;14.440;2023-12-28T04:16:14;98418.09;;;1.59;97.10
73016;BME280;61893;50.074;14.440;2023-12-28T04:18:41;98419.75;;;1.60;96.46
73016;BME280;61893;50.074;14.440;2023-12-28T04:21:11;98419.88;;;1.58;96.86
73016;BME280;61893;50.074;14.440;2023-12-28T04:23:37;98413.13;;;1.54;96.59
73016;BME280;61893;50.074;14.440;2023-12-28T04:26:04;98411.75;;;1.49;96.98
73016;BME280;61893;50.074;14.440;2023-12-28T04:28:29;98409.44;;;1.44;97.44
73016;BME280;61893;50.074;14.440;2023-12-28T04:30:56;98417.19;;;1.46;97.30
73016;BME280;61893;50.074;14.440;2023-12-28T04:33:22;98407.28;;;1.37;97.40
73016;BME280;61893;50.074;14.440;2023-12-28T04:35:48;98408.22;;;1.35;96.99
73016;BME280;61893;50.074;14.440;2023-12-28T04:38:13;98407.09;;;1.40;97.24
73016;BME280;61893;50.074;14.440;2023-12-28T04:40:40;98399.97;;;1.42;96.86
73016;BME280;61893;50.074;14.440;2023-12-28T04:43:05;98408.88;;;1.39;97.15
73016;BME280;61893;50.074;14.440;2023-12-28T04:45:31;98425.00;;;1.33;96.73
73016;BME280;61893;50.074;14.440;2023-12-28T04:47:57;98433.13;;;1.28;97.16
73016;BME280;61893;50.074;14.440;2023-12-28T04:50:23;98430.16;;;1.20;97.27
73016;BME280;61893;50.074;14.440;2023-12-28T04:52:48;98434.88;;;1.15;97.29
73016;BME280;61893;50.074;14.440;2023-12-28T04:55:14;98439.41;;;1.26;97.03
73016;BME280;61893;50.074;14.440;2023-12-28T04:57:42;98446.56;;;1.24;96.77
73016;BME280;61893;50.074;14.440;2023-12-28T05:00:09;98458.22;;;1.32;96.63
73016;BME280;61893;50.074;14.440;2023-12-28T05:02:34;98451.47;;;1.28;96.58
73016;BME280;61893;50.074;14.440;2023-12-28T05:05:00;98448.03;;;1.28;96.52
73016;BME280;61893;50.074;14.440;2023-12-28T05:07:26;98446.44;;;1.25;96.20
73016;BME280;61893;50.074;14.440;2023-12-28T05:09:52;98457.03;;;1.24;96.33
73016;BME280;61893;50.074;14.440;2023-12-28T05:12:18;98449.63;;;1.16;96.44
73016;BME280;61893;50.074;14.440;2023-12-28T05:14:44;98442.72;;;1.15;96.80
73016;BME280;61893;50.074;14.440;2023-12-28T05:17:09;98450.66;;;1.13;96.30
73016;BME280;61893;50.074;14.440;2023-12-28T05:19:35;98454.03;;;1.16;96.65
73016;BME280;61893;50.074;14.440;2023-12-28T05:22:00;98454.41;;;1.24;95.96
73016;BME280;61893;50.074;14.440;2023-12-28T05:24:29;98456.72;;;1.28;95.27
73016;BME280;61893;50.074;14.440;2023-12-28T05:26:55;98459.06;;;1.33;93.33
73016;BME280;61893;50.074;14.440;2023-12-28T05:29:21;98463.47;;;1.32;93.54
73016;BME280;61893;50.074;14.440;2023-12-28T05:31:47;98458.44;;;1.29;92.67
73016;BME280;61893;50.074;14.440;2023-12-28T05:34:13;98459.28;;;1.30;92.36
73016;BME280;61893;50.074;14.440;2023-12-28T05:36:38;98453.19;;;1.29;92.24
73016;BME280;61893;50.074;14.440;2023-12-28T05:39:06;98457.84;;;1.39;92.03
73016;BME280;61893;50.074;14.440;2023-12-28T05:41:34;98468.50;;;1.50;90.83
73016;BME280;61893;50.074;14.440;2023-12-28T05:44:00;98467.81;;;1.61;89.96
73016;BME280;61893;50.074;14.440;2023-12-28T05:46:46;98462.91;;;1.69;89.49
73016;BME280;61893;50.074;14.440;2023-12-28T05:49:12;98471.53;;;1.71;88.45
73016;BME280;61893;50.074;14.440;2023-12-28T05:51:41;98466.44;;;1.82;88.03
73016;BME280;61893;50.074;14.440;2023-12-28T05:54:08;98466.16;;;1.87;88.31
73016;BME280;61893;50.074;14.440;2023-12-28T05:56:34;98470.34;;;1.89;88.11
73016;BME280;61893;50.074;14.440;2023-12-28T05:59:00;98476.03;;;1.96;88.09
73016;BME280;61893;50.074;14.440;2023-12-28T06:01:26;98485.34;;;1.87;87.73
73016;BME280;61893;50.074;14.440;2023-12-28T06:03:53;98485.06;;;1.92;87.95
73016;BME280;61893;50.074;14.440;2023-12-28T06:06:19;98479.63;;;1.95;87.52
73016;BME280;61893;50.074;14.440;2023-12-28T06:08:45;98469.84;;;1.97;86.90
73016;BME280;61893;50.074;14.440;2023-12-28T06:11:10;98465.34;;;1.99;86.58
73016;BME280;61893;50.074;14.440;2023-12-28T06:13:37;98474.78;;;2.01;86.30
73016;BME280;61893;50.074;14.440;2023-12-28T06:16:02;98472.16;;;2.01;86.06
73016;BME280;61893;50.074;14.440;2023-12-28T06:18:28;98475.19;;;1.95;86.67
73016;BME280;61893;50.074;14.440;2023-12-28T06:20:54;98476.25;;;2.06;86.27
73016;BME280;61893;50.074;14.440;2023-12-28T06:23:21;98462.44;;;2.03;86.53
73016;BME280;61893;50.074;14.440;2023-12-28T06:25:46;98472.25;;;2.00;86.18
73016;BME280;61893;50.074;14.440;2023-12-28T06:28:18;98472.38;;;1.98;86.41
73016;BME280;61893;50.074;14.440;2023-12-28T06:30:47;98470.19;;;2.05;86.17
73016;BME280;61893;50.074;14.440;2023-12-28T06:33:16;98467.97;;;1.99;86.24
73016;BME280;61893;50.074;14.440;2023-12-28T06:35:47;98469.63;;;2.00;86.32
73016;BME280;61893;50.074;14.440;2023-12-28T06:38:16;98464.19;;;2.03;85.93
73016;BME280;61893;50.074;14.440;2023-12-28T06:40:42;98467.97;;;1.99;85.98
73016;BME280;61893;50.074;14.440;2023-12-28T06:43:42;98460.44;;;2.07;85.45
73016;BME280;61893;50.074;14.440;2023-12-28T06:46:23;98458.75;;;2.06;85.30
73016;BME280;61893;50.074;14.440;2023-12-28T06:48:48;98454.16;;;2.10;85.08
73016;BME280;61893;50.074;14.440;2023-12-28T06:51:21;98460.78;;;2.15;84.45
73016;BME280;61893;50.074;14.440;2023-12-28T06:53:48;98467.00;;;2.27;84.06
73016;BME280;61893;50.074;14.440;2023-12-28T06:56:14;98462.81;;;2.50;81.34
73016;BME280;61893;50.074;14.440;2023-12-28T06:58:41;98464.19;;;2.68;80.52
73016;BME280;61893;50.074;14.440;2023-12-28T07:01:06;98471.34;;;2.79;79.41
73016;BME280;61893;50.074;14.440;2023-12-28T07:03:33;98471.13;;;2.82;78.23
73016;BME280;61893;50.074;14.440;2023-12-28T07:05:59;98459.25;;;2.77;79.26
73016;BME280;61893;50.074;14.440;2023-12-28T07:08:36;98462.72;;;2.77;79.43
73016;BME280;61893;50.074;14.440;2023-12-28T07:11:02;98459.47;;;2.86;78.94
73016;BME280;61893;50.074;14.440;2023-12-28T07:13:43;98454.13;;;3.01;78.11
73016;BME280;61893;50.074;14.440;2023-12-28T07:16:24;98469.84;;;3.26;76.90
73016;BME280;61893;50.074;14.440;2023-12-28T07:19:05;98473.19;;;3.41;75.77
73016;BME280;61893;50.074;14.440;2023-12-28T07:21:46;98471.13;;;3.57;74.32
73016;BME280;61893;50.074;14.440;2023-12-28T07:24:27;98467.72;;;3.68;73.50
73016;BME280;61893;50.074;14.440;2023-12-28T07:26:52;98470.19;;;3.82;72.88
73016;BME280;61893;50.074;14.440;2023-12-28T07:29:18;98471.00;;;3.96;71.69
73016;BME280;61893;50.074;14.440;2023-12-28T07:31:44;98479.44;;;4.12;70.64
73016;BME280;61893;50.074;14.440;2023-12-28T07:34:10;98482.06;;;4.36;70.04
73016;BME280;61893;50.074;14.440;2023-12-28T07:36:36;98494.84;;;4.65;69.11
73016;BME280;61893;50.074;14.440;2023-12-28T07:39:02;98497.16;;;4.92;67.58
73016;BME280;61893;50.074;14.440;2023-12-28T07:41:43;98507.47;;;5.06;66.84
73016;BME280;61893;50.074;14.440;2023-12-28T07:44:09;98509.44;;;5.27;66.31
73016;BME280;61893;50.074;14.440;2023-12-28T07:46:37;98511.59;;;5.44;65.85
73016;BME280;61893;50.074;14.440;2023-12-28T07:49:18;98510.13;;;5.51;66.32
73016;BME280;61893;50.074;14.440;2023-12-28T07:51:58;98499.56;;;5.40;65.34
73016;BME280;61893;50.074;14.440;2023-12-28T07:54:23;98513.16;;;5.35;65.58
73016;BME280;61893;50.074;14.440;2023-12-28T07:56:49;98498.88;;;5.38;65.80
73016;BME280;61893;50.074;14.440;2023-12-28T07:59:15;98506.78;;;5.38;66.09
73016;BME280;61893;50.074;14.440;2023-12-28T08:01:41;98514.09;;;5.46;65.09
73016;BME280;61893;50.074;14.440;2023-12-28T08:04:07;98509.28;;;5.51;65.22
73016;BME280;61893;50.074;14.440;2023-12-28T08:06:33;98522.00;;;5.57;64.90
73016;BME280;61893;50.074;14.440;2023-12-28T08:08:59;98531.34;;;5.72;64.24
73016;BME280;61893;50.074;14.440;2023-12-28T08:11:27;98529.78;;;5.81;63.85
73016;BME280;61893;50.074;14.440;2023-12-28T08:13:52;98521.38;;;5.87;62.62
73016;BME280;61893;50.074;14.440;2023-12-28T08:16:19;98521.84;;;6.03;63.14
73016;BME280;61893;50.074;14.440;2023-12-28T08:18:45;98528.41;;;6.20;61.73
73016;BME280;61893;50.074;14.440;2023-12-28T08:21:11;98515.16;;;6.31;61.20
73016;BME280;61893;50.074;14.440;2023-12-28T08:23:37;98514.47;;;6.50;60.59
73016;BME280;61893;50.074;14.440;2023-12-28T08:26:17;98499.81;;;6.46;59.98
73016;BME280;61893;50.074;14.440;2023-12-28T08:29:17;98482.50;;;6.53;60.01
73016;BME280;61893;50.074;14.440;2023-12-28T08:31:46;98489.13;;;6.69;59.21
73016;BME280;61893;50.074;14.440;2023-12-28T08:34:26;98491.34;;;6.85;58.61
73016;BME280;61893;50.074;14.440;2023-12-28T08:37:08;98481.00;;;7.03;58.10
73016;BME280;61893;50.074;14.440;2023-12-28T08:39:47;98492.91;;;7.18;57.77
73016;BME280;61893;50.074;14.440;2023-12-28T08:42:13;98481.97;;;7.32;57.56
73016;BME280;61893;50.074;14.440;2023-12-28T08:44:53;98484.66;;;7.42;56.97
73016;BME280;61893;50.074;14.440;2023-12-28T08:47:19;98478.00;;;7.57;58.23
73016;BME280;61893;50.074;14.440;2023-12-28T08:49:56;98469.50;;;7.54;58.12
73016;BME280;61893;50.074;14.440;2023-12-28T08:52:36;98474.25;;;7.50;59.36
73016;BME280;61893;50.074;14.440;2023-12-28T08:55:04;98490.16;;;7.70;59.29
73016;BME280;61893;50.074;14.440;2023-12-28T08:57:30;98487.41;;;7.81;58.82
73016;BME280;61893;50.074;14.440;2023-12-28T09:00:11;98487.97;;;7.75;58.96
73016;BME280;61893;50.074;14.440;2023-12-28T09:02:55;98506.22;;;7.68;60.10
73016;BME280;61893;50.074;14.440;2023-12-28T09:05:21;98501.19;;;7.65;59.73
73016;BME280;61893;50.074;14.440;2023-12-28T09:07:47;98497.28;;;7.69;59.83
73016;BME280;61893;50.074;14.440;2023-12-28T09:10:13;98494.78;;;7.77;59.94
73016;BME280;61893;50.074;14.440;2023-12-28T09:12:40;98508.75;;;7.89;59.86
73016;BME280;61893;50.074;14.440;2023-12-28T09:15:07;98514.50;;;7.94;59.53
73016;BME280;61893;50.074;14.440;2023-12-28T09:17:38;98515.47;;;7.93;59.97
73016;BME280;61893;50.074;14.440;2023-12-28T09:20:31;98521.34;;;8.06;59.83
73016;BME280;61893;50.074;14.440;2023-12-28T09:22:57;98533.38;;;8.10;59.67
73016;BME280;61893;50.074;14.440;2023-12-28T09:25:37;98526.09;;;8.12;60.09
73016;BME280;61893;50.074;14.440;2023-12-28T09:28:05;98539.94;;;8.26;59.69
73016;BME280;61893;50.074;14.440;2023-12-28T09:30:30;98524.88;;;8.26;60.05
73016;BME280;61893;50.074;14.440;2023-12-28T09:33:11;98532.00;;;8.35;60.18
73016;BME280;61893;50.074;14.440;2023-12-28T09:35:37;98521.94;;;8.29;60.68
73016;BME280;61893;50.074;14.440;2023-12-28T09:38:03;98519.72;;;8.34;61.21
73016;BME280;61893;50.074;14.440;2023-12-28T09:40:29;98520.31;;;8.48;61.37
73016;BME280;61893;50.074;14.440;2023-12-28T09:45:52;98498.81;;;8.61;62.39
73016;BME280;61893;50.074;14.440;2023-12-28T09:48:37;98480.69;;;8.56;62.96
73016;BME280;61893;50.074;14.440;2023-12-28T09:51:05;98477.03;;;8.67;63.35
73016;BME280;61893;50.074;14.440;2023-12-28T09:53:32;98478.44;;;8.71;63.34
73016;BME280;61893;50.074;14.440;2023-12-28T09:55:58;98489.00;;;8.80;63.84
73016;BME280;61893;50.074;14.440;2023-12-28T09:58:40;98494.88;;;8.84;64.43
73016;BME280;61893;50.074;14.440;2023-12-28T10:01:09;98496.53;;;8.95;64.35
73016;BME280;61893;50.074;14.440;2023-12-28T10:03:35;98512.59;;;8.93;64.79
73016;BME280;61893;50.074;14.440;2023-12-28T10:06:16;98518.03;;;9.01;64.79
73016;BME280;61893;50.074;14.440;2023-12-28T10:08:56;98531.03;;;9.05;65.08
73016;BME280;61893;50.074;14.440;2023-12-28T10:11:22;98536.34;;;9.05;65.20
73016;BME280;61893;50.074;14.440;2023-12-28T10:14:03;98529.03;;;9.16;65.01
73016;BME280;61893;50.074;14.440;2023-12-28T10:16:30;98534.19;;;9.28;65.16
73016;BME280;61893;50.074;14.440;2023-12-28T10:18:56;98530.38;;;9.40;64.14
73016;BME280;61893;50.074;14.440;2023-12-28T10:21:39;98516.38;;;9.38;63.62
73016;BME280;61893;50.074;14.440;2023-12-28T10:24:20;98501.81;;;9.52;63.32
73016;BME280;61893;50.074;14.440;2023-12-28T10:26:47;98497.72;;;9.57;63.35
73016;BME280;61893;50.074;14.440;2023-12-28T10:29:12;98499.56;;;9.57;62.87
73016;BME280;61893;50.074;14.440;2023-12-28T10:31:42;98510.41;;;9.63;62.91
73016;BME280;61893;50.074;14.440;2023-12-28T10:34:08;98510.00;;;9.58;62.62
73016;BME280;61893;50.074;14.440;2023-12-28T10:36:50;98510.28;;;9.65;62.69
73016;BME280;61893;50.074;14.440;2023-12-28T10:39:31;98504.97;;;9.65;62.50
73016;BME280;61893;50.074;14.440;2023-12-28T10:42:02;98509.06;;;9.59;62.45
73016;BME280;61893;50.074;14.440;2023-12-28T10:44:31;98516.97;;;9.69;62.27
73016;BME280;61893;50.074;14.440;2023-12-28T10:47:02;98495.72;;;9.69;62.18
73016;BME280;61893;50.074;14.440;2023-12-28T10:49:30;98492.28;;;9.59;62.25
73016;BME280;61893;50.074;14.440;2023-12-28T10:52:16;98484.59;;;9.56;61.98
73016;BME280;61893;50.074;14.440;2023-12-28T10:55:21;98490.28;;;9.61;61.46
73016;BME280;61893;50.074;14.440;2023-12-28T10:57:56;98496.31;;;9.63;60.55
73016;BME280;61893;50.074;14.440;2023-12-28T11:00:25;98504.03;;;9.56;60.59
73016;BME280;61893;50.074;14.440;2023-12-28T11:03:09;98497.97;;;9.64;59.86
73016;BME280;61893;50.074;14.440;2023-12-28T11:05:51;98506.22;;;9.61;59.48
73016;BME280;61893;50.074;14.440;2023-12-28T11:08:19;98503.75;;;9.59;59.40
73016;BME280;61893;50.074;14.440;2023-12-28T11:11:08;98502.22;;;9.57;59.18
73016;BME280;61893;50.074;14.440;2023-12-28T11:13:49;98502.03;;;9.68;59.26
73016;BME280;61893;50.074;14.440;2023-12-28T11:16:18;98497.41;;;9.70;59.35
73016;BME280;61893;50.074;14.440;2023-12-28T11:18:45;98496.59;;;9.60;60.05
73016;BME280;61893;50.074;14.440;2023-12-28T11:21:12;98495.78;;;9.59;59.57
73016;BME280;61893;50.074;14.440;2023-12-28T11:23:38;98493.94;;;9.60;59.82
73016;BME280;61893;50.074;14.440;2023-12-28T11:26:16;98486.41;;;9.55;59.73
73016;BME280;61893;50.074;14.440;2023-12-28T11:28:42;98488.19;;;9.64;59.88
73016;BME280;61893;50.074;14.440;2023-12-28T11:31:16;98472.09;;;9.66;59.78
73016;BME280;61893;50.074;14.440;2023-12-28T11:33:50;98469.88;;;9.61;60.25
73016;BME280;61893;50.074;14.440;2023-12-28T11:36:37;98463.72;;;9.61;60.55
73016;BME280;61893;50.074;14.440;2023-12-28T11:39:32;98463.44;;;9.64;60.26
73016;BME280;61893;50.074;14.440;2023-12-28T11:42:19;98464.03;;;9.58;60.43
73016;BME280;61893;50.074;14.440;2023-12-28T11:45:05;98467.38;;;9.60;59.36
73016;BME280;61893;50.074;14.440;2023-12-28T11:47:32;98467.50;;;9.58;59.70
73016;BME280;61893;50.074;14.440;2023-12-28T11:50:06;98467.91;;;9.63;58.51
73016;BME280;61893;50.074;14.440;2023-12-28T11:52:33;98465.63;;;9.51;58.98
73016;BME280;61893;50.074;14.440;2023-12-28T11:55:00;98473.38;;;9.62;58.48
73016;BME280;61893;50.074;14.440;2023-12-28T11:57:37;98460.78;;;9.64;58.30
73016;BME280;61893;50.074;14.440;2023-12-28T12:00:04;98448.34;;;9.64;58.18
73016;BME280;61893;50.074;14.440;2023-12-28T12:02:31;98443.09;;;9.73;58.08
73016;BME280;61893;50.074;14.440;2023-12-28T12:04:57;98459.34;;;9.69;58.24
73016;BME280;61893;50.074;14.440;2023-12-28T12:07:37;98441.44;;;9.72;58.56
73016;BME280;61893;50.074;14.440;2023-12-28T12:10:07;98450.94;;;9.74;58.88
73016;BME280;61893;50.074;14.440;2023-12-28T12:12:32;98445.47;;;9.76;58.59
73016;BME280;61893;50.074;14.440;2023-12-28T12:14:59;98433.19;;;9.75;59.35
73016;BME280;61893;50.074;14.440;2023-12-28T12:17:26;98432.56;;;9.63;59.83
73016;BME280;61893;50.074;14.440;2023-12-28T12:20:08;98438.09;;;9.69;59.45
73016;BME280;61893;50.074;14.440;2023-12-28T12:23:01;98428.38;;;9.78;59.56
73016;BME280;61893;50.074;14.440;2023-12-28T12:25:42;98431.66;;;9.72;60.29
73016;BME280;61893;50.074;14.440;2023-12-28T12:28:25;98432.47;;;9.73;60.43
73016;BME280;61893;50.074;14.440;2023-12-28T12:31:06;98430.69;;;9.73;60.69
73016;BME280;61893;50.074;14.440;2023-12-28T12:33:50;98433.69;;;9.78;60.93
73016;BME280;61893;50.074;14.440;2023-12-28T12:36:17;98440.63;;;9.71;61.66
73016;BME280;61893;50.074;14.440;2023-12-28T12:38:43;98441.31;;;9.73;61.73
73016;BME280;61893;50.074;14.440;2023-12-28T12:41:10;98442.88;;;9.66;62.23
73016;BME280;61893;50.074;14.440;2023-12-28T12:43:52;98442.44;;;9.70;62.85
73016;BME280;61893;50.074;14.440;2023-12-28T12:46:21;98449.84;;;9.67;63.60
73016;BME280;61893;50.074;14.440;2023-12-28T12:48:58;98456.84;;;9.68;63.77
73016;BME280;61893;50.074;14.440;2023-12-28T12:51:28;98455.97;;;9.77;63.50
73016;BME280;61893;50.074;14.440;2023-12-28T12:54:07;98455.13;;;9.77;63.88
73016;BME280;61893;50.074;14.440;2023-12-28T12:56:35;98454.59;;;9.73;64.26
73016;BME280;61893;50.074;14.440;2023-12-28T12:59:00;98446.94;;;9.70;64.79
73016;BME280;61893;50.074;14.440;2023-12-28T13:01:26;98454.03;;;9.69;65.09
73016;BME280;61893;50.074;14.440;2023-12-28T13:03:52;98437.50;;;9.76;65.19
73016;BME280;61893;50.074;14.440;2023-12-28T13:06:33;98433.91;;;9.67;65.07
73016;BME280;61893;50.074;14.440;2023-12-28T13:08:59;98436.50;;;9.59;66.02
73016;BME280;61893;50.074;14.440;2023-12-28T13:11:26;98439.78;;;9.70;65.42
73016;BME280;61893;50.074;14.440;2023-12-28T13:14:07;98443.25;;;9.53;66.02
73016;BME280;61893;50.074;14.440;2023-12-28T13:16:36;98448.97;;;9.48;66.36